Craigsville, WV

3:33 AM EDT on May 01, 2017 (GMT -0400)
Nile Road | | Change Station

Elev 2090 ft 38.30 °N, 80.75 °W | Updated 1 minute ago

Partly Cloudy
Partly Cloudy
68.0 °F
Feels Like 68.0 °F
N
3.0
Wind Variable Wind from ESE

Today
High -- | Low -- °F
--% Chance of Precip.
Yesterday
High -- | Low -- °F
Precip. -- in
Pressure 29.98 in
Visibility 10.0 miles
Clouds Mostly Cloudy 3200 ft
Mostly Cloudy 9000 ft
Dew Point 61 °F
Humidity 79%
Rainfall 0.00 in
Snow Depth Not available.
6:25 AM 8:14 PM
Waxing Crescent, 30% visible
METAR KLWB 010715Z AUTO 00000KT 10SM BKN032 BKN090 19/16 A2998 RMK AO2 T01880156
Pressure 29.98 in
Visibility 10.0 miles
Clouds Mostly Cloudy 3200 ft
Mostly Cloudy 9000 ft
Dew Point 61 °F
Humidity 79%
Rainfall 0.00 in
Snow Depth Not available.
6:25 AM 8:14 PM
Waxing Crescent, 30% visible
METAR KLWB 010715Z AUTO 00000KT 10SM BKN032 BKN090 19/16 A2998 RMK AO2 T01880156

Get Severe Weather Alerts

Thanks for signing up!

Be on the lookout for a verification email in your inbox.

You'll start receiving the daily forecast at 8 AM.

×

10-Day Weather Forecast

Almanac

Astronomy

May. 01, 2017 Rise Set
Actual Time
Civil Twilight
Nautical Twilight
Astronomical Twilight
Moon
Length of Visible Light
Length of Day
Tomorrow will be .
, % of the Moon is Illuminated

Today's Extremes

State Highs State Lows

Community

WunderPhotos

WunderBlog® & News

Nearby

Air Quality

  Air Quality AQ Index Pollutant
Not available.

Snow Depth

Station Depth Elevation

Earthquake Activity

City Distance Mag. Time & Date
Minimum magnitude displayed is 2.5.

Coastal Water Temperatures

Place Temperature

Stations

Nearby Weather Stations

Station Location Temp. Windchill Dew Point Humidity Wind Precip. Elev Updated Type
                   

Watches & Warnings

There are currently no watches in effect.